Aviation Digital Data Service (ADDS)

Output produced by TAFs form (1924 UTC 23 April 2018)
found at http://www.aviationweather.gov/adds/tafs/
 
KSSI 231853Z AUTO 14009KT 10SM SCT085 22/21 A2996 RMK AO2 RAE31 TSE06 SLP148 P0018 T02220211
KSSI 231847Z 2319/2418 18010KT P6SM VCSH SCT035 BKN100 
     TEMPO 2319/2322 VRB12G22KT 4SM TSRA BKN025CB 
     FM240100 16010G17KT P6SM VCSH OVC020 
     FM240600 20007KT P6SM SCT007 BKN015 
     FM241100 25006KT P6SM SCT035